KYK weather

Karluk Airport
Karluk, Alaska, United States

Public forecast

Using degrees Fahrenheit for public forecast. Weather courtesy of forecast.io.

METAR (pilot weather report)

Closest report is Akhiok Airport, 38.7 nm (71.7 km) SSE. Retrieved 2019/07/18 21:56 UTC (41 minutes ago):

PAKH 182156Z AUTO 31013G21KT 10SM BKN022 OVC085 16/12 A2993 RMK AO2 SLP138 T01560117 $

TAF (pilot weather forecast)

Closest forecast is Kodiak Airport, 63.8 nm (118.1 km) E. Retrieved 2019/07/18 18:22 UTC (4 hours ago):

TAF PADQ 181720Z 1818/1918 30012KT P6SM BKN250